createdAt,value
2022-12-20T00:00:22.930Z,103186.41
2022-12-20T00:05:52.128Z,103177.72
2022-12-20T00:11:21.473Z,103171.78
2022-12-20T00:16:52.038Z,103166.34
2022-12-20T00:22:21.075Z,103161.03
2022-12-20T00:27:44.650Z,103161.25
2022-12-20T00:33:11.808Z,103164.69
2022-12-20T00:38:42.826Z,103153.34
2022-12-20T00:44:12.005Z,103136.03
2022-12-20T00:49:37.225Z,103132.59
2022-12-20T00:55:06.604Z,103131.91
2022-12-20T01:00:36.421Z,103124.19
2022-12-20T01:06:07.475Z,103126.03
2022-12-20T01:11:36.723Z,103129.75
2022-12-20T01:17:05.456Z,103119.38
2022-12-20T01:22:35.554Z,103119.38
2022-12-20T01:28:03.995Z,103113.94
2022-12-20T01:33:33.248Z,103115.81
2022-12-20T01:39:06.952Z,103112.59
2022-12-20T01:44:58.573Z,103103.66
2022-12-20T01:50:28.578Z,103102.81
2022-12-20T01:56:01.242Z,103091.34
2022-12-20T02:01:30.492Z,103084.22
2022-12-20T02:06:59.192Z,103082.38
2022-12-20T02:12:35.407Z,103088.59
2022-12-20T02:18:16.578Z,103089.53
2022-12-20T02:24:20.505Z,103083.44
2022-12-20T02:30:12.485Z,103089.22
2022-12-20T02:35:43.113Z,103086.38
2022-12-20T02:41:23.294Z,103078.28
2022-12-20T02:46:56.965Z,103073.69
2022-12-20T02:52:32.099Z,103071.97
2022-12-20T02:58:06.269Z,103082.72
2022-12-20T03:03:37.862Z,103081.13
2022-12-20T03:09:07.107Z,103096.38
2022-12-20T03:14:37.874Z,103092.41
2022-12-20T03:20:12.316Z,103077.78
2022-12-20T03:25:41.642Z,103073.44
2022-12-20T03:31:15.450Z,103071.13
2022-12-20T03:36:51.188Z,103072.69
2022-12-20T03:42:20.423Z,103075.28
2022-12-20T03:47:49.622Z,103076.88
2022-12-20T03:53:20.295Z,103078.63
2022-12-20T03:58:49.258Z,103072.41
2022-12-20T04:04:18.152Z,103073.31
2022-12-20T04:09:48.288Z,103054.75
2022-12-20T04:15:18.296Z,103070.00
2022-12-20T04:20:54.020Z,103063.22
2022-12-20T04:26:30.161Z,103072.31
2022-12-20T08:56:41.663Z,102862.28
2022-12-20T09:02:08.496Z,102876.19
2022-12-20T09:07:33.737Z,102853.44
2022-12-20T09:12:59.416Z,102842.06
2022-12-20T09:18:23.579Z,102833.59
2022-12-20T09:23:47.285Z,102852.75
2022-12-20T09:29:25.010Z,102830.44
2022-12-20T09:34:56.446Z,102814.78
2022-12-20T09:40:30.141Z,102815.41
2022-12-20T09:46:03.203Z,102799.91
2022-12-20T09:51:49.095Z,102785.34
2022-12-20T09:57:25.146Z,102782.63
2022-12-20T10:03:04.097Z,102786.22
2022-12-20T10:08:47.057Z,102767.78
2022-12-20T10:14:34.486Z,102748.44
2022-12-20T10:20:15.057Z,102750.50
2022-12-20T10:25:41.802Z,102743.97
2022-12-20T10:31:09.562Z,102719.88
2022-12-20T10:36:35.776Z,102708.88
2022-12-20T10:41:59.971Z,102696.81
2022-12-20T10:47:39.240Z,102677.47
2022-12-20T10:53:24.286Z,102675.16
2022-12-20T10:59:00.079Z,102660.72
2022-12-20T11:04:32.267Z,102647.03
2022-12-20T11:10:05.355Z,102623.78
2022-12-20T11:15:36.922Z,102623.13
2022-12-20T11:21:28.365Z,102601.44
2022-12-20T11:27:17.756Z,102595.03
2022-12-20T11:33:10.454Z,102591.31
2022-12-20T11:38:44.404Z,102575.56
2022-12-20T11:44:26.704Z,102572.97
2022-12-20T11:50:04.779Z,102573.75
2022-12-20T11:55:37.136Z,102564.56
2022-12-20T12:01:13.741Z,102546.16
2022-12-20T12:06:47.168Z,102547.75
2022-12-20T12:12:25.504Z,102548.03
2022-12-20T12:18:01.899Z,102517.34
2022-12-20T12:23:38.289Z,102508.88
2022-12-20T12:29:12.545Z,102509.13
2022-12-20T12:34:59.020Z,102503.00
2022-12-20T12:40:52.435Z,102495.06
2022-12-20T12:46:28.373Z,102488.41
2022-12-20T12:52:01.849Z,102482.50
2022-12-20T12:57:58.328Z,102471.84
2022-12-20T13:03:52.567Z,102460.50
2022-12-20T13:09:38.767Z,102446.31
2022-12-20T13:15:41.514Z,102445.47
2022-12-20T13:21:37.440Z,102452.38
2022-12-20T13:27:28.257Z,102451.88
2022-12-20T13:33:44.169Z,102439.53
2022-12-20T13:39:38.079Z,102438.00
2022-12-20T13:45:15.324Z,102433.22
2022-12-20T13:50:50.940Z,102432.34
2022-12-20T13:56:36.262Z,102413.47
2022-12-20T17:29:54.043Z,102158.47
2022-12-20T17:35:25.393Z,102142.28
2022-12-20T17:40:50.341Z,102145.38
2022-12-20T17:46:21.785Z,102132.81
2022-12-20T17:51:48.081Z,102125.38
2022-12-20T17:57:15.514Z,102122.88
2022-12-20T18:02:42.944Z,102114.38
2022-12-20T18:08:13.377Z,102097.31
2022-12-20T18:13:37.209Z,102102.44
2022-12-20T18:19:04.598Z,102087.84
2022-12-20T18:24:30.037Z,102084.16
2022-12-20T18:29:52.977Z,102077.97
2022-12-20T18:35:19.980Z,102083.38
2022-12-20T18:40:45.985Z,102077.81
2022-12-20T18:46:18.084Z,102073.75
2022-12-20T18:51:43.905Z,102070.41
2022-12-20T18:57:07.707Z,102065.00
2022-12-20T19:02:36.519Z,102059.31
2022-12-20T19:08:06.747Z,102058.34
2022-12-20T19:13:31.782Z,102053.25
2022-12-20T19:18:55.036Z,102049.75
2022-12-20T19:24:20.143Z,102046.03
2022-12-20T19:29:49.310Z,102041.47
2022-12-20T19:35:53.451Z,102034.09
2022-12-20T19:41:09.023Z,102021.00
2022-12-20T19:46:38.292Z,102003.91
2022-12-20T19:52:08.059Z,101989.28
2022-12-20T19:57:38.453Z,101986.16
2022-12-20T20:03:07.400Z,101983.63
2022-12-20T20:08:36.693Z,101969.19
2022-12-20T20:14:09.446Z,101961.84
2022-12-20T20:19:40.028Z,101950.47
2022-12-20T20:25:09.583Z,101959.31
2022-12-20T20:30:42.321Z,101961.75
2022-12-20T20:36:14.532Z,101966.47
2022-12-20T20:41:43.408Z,101969.66
2022-12-20T20:47:13.671Z,101958.47
2022-12-20T20:52:42.350Z,101958.34
2022-12-20T20:58:11.834Z,101951.53
2022-12-20T21:03:42.322Z,101957.28
2022-12-20T21:09:11.515Z,101946.81
2022-12-20T21:15:20.212Z,101939.56
2022-12-20T21:20:31.021Z,101931.09
2022-12-20T21:26:01.273Z,101946.81
2022-12-20T21:31:30.981Z,101936.38
2022-12-20T21:37:01.514Z,101936.81
2022-12-20T21:42:30.269Z,101934.03
2022-12-20T21:48:03.079Z,101935.00
2022-12-20T21:53:34.790Z,101926.06
2022-12-20T21:59:04.480Z,101920.84
2022-12-20T22:04:34.565Z,101909.66
